Time;durP1;ratioP1;P1;durP2;ratioP2;P2;SDS_P1;SDS_P2;PMS_P1;PMS_P2;Temp;Humidity;BMP_temperature;BMP_pressure;BME280_temperature;BME280_humidity;BME280_pressure;Samples;Min_cycle;Max_cycle;Signal;HPM_P1;HPM_P2
2023/01/02 00:00:47;;;;;;;0.70;0.40;;;11.90;99.90;;;;;;5058709;28;20032;-69
2023/01/02 00:03:12;;;;;;;0.55;0.40;;;11.90;99.90;;;;;;5040667;28;20024;-70
2023/01/02 00:05:38;;;;;;;0.93;0.52;;;11.80;99.90;;;;;;5040671;28;20025;-69
2023/01/02 00:08:04;;;;;;;2.42;0.63;;;11.80;99.90;;;;;;5058477;28;20090;-69
2023/01/02 00:10:29;;;;;;;0.70;0.50;;;11.80;99.90;;;;;;5058321;28;20029;-69
2023/01/02 00:12:55;;;;;;;1.00;0.50;;;11.70;99.90;;;;;;5058586;28;20035;-70
2023/01/02 00:15:21;;;;;;;1.00;0.50;;;11.70;99.90;;;;;;5058398;28;20040;-69
2023/01/02 00:17:46;;;;;;;0.90;0.60;;;11.80;99.90;;;;;;5058356;28;20541;-69
2023/01/02 00:20:12;;;;;;;1.30;0.40;;;11.80;99.90;;;;;;5058391;28;20106;-70
2023/01/02 00:22:38;;;;;;;0.57;0.50;;;11.70;99.90;;;;;;5058132;28;20055;-69
2023/01/02 00:25:04;;;;;;;0.45;0.40;;;11.70;99.90;;;;;;5058302;28;20079;-69
2023/01/02 00:27:29;;;;;;;0.60;0.40;;;11.70;99.90;;;;;;5058247;28;20493;-70
2023/01/02 00:29:55;;;;;;;0.40;0.40;;;11.60;99.90;;;;;;5057670;28;20029;-70
2023/01/02 00:32:21;;;;;;;0.80;0.40;;;11.60;99.90;;;;;;5058004;28;20154;-69
2023/01/02 00:34:46;;;;;;;1.50;0.60;;;11.60;99.90;;;;;;5040151;28;20029;-69
2023/01/02 00:37:12;;;;;;;0.60;0.40;;;11.60;99.90;;;;;;5047211;28;20061;-69
2023/01/02 00:39:37;;;;;;;0.88;0.52;;;11.50;99.90;;;;;;5039989;28;20450;-69
2023/01/02 00:42:03;;;;;;;1.50;0.43;;;11.50;99.90;;;;;;5057908;28;20036;-70
2023/01/02 00:44:29;;;;;;;0.80;0.40;;;11.50;99.90;;;;;;5057970;28;20104;-69
2023/01/02 00:46:54;;;;;;;0.60;0.40;;;11.50;99.90;;;;;;5057814;28;20025;-69
2023/01/02 00:49:20;;;;;;;0.95;0.50;;;11.50;99.90;;;;;;5057791;28;20021;-70
2023/01/02 00:51:45;;;;;;;1.40;0.63;;;11.50;99.90;;;;;;5058000;28;20037;-69
2023/01/02 00:54:11;;;;;;;0.73;0.40;;;11.50;99.90;;;;;;5057504;28;20027;-70
2023/01/02 00:56:37;;;;;;;0.50;0.40;;;11.50;99.90;;;;;;5057758;28;20029;-69
2023/01/02 00:59:02;;;;;;;0.73;0.40;;;11.50;99.90;;;;;;5057313;28;20031;-70
2023/01/02 01:01:28;;;;;;;0.63;0.50;;;11.50;99.90;;;;;;5057565;28;20021;-69
2023/01/02 01:03:53;;;;;;;0.50;0.40;;;11.40;99.90;;;;;;5057642;28;20429;-70
2023/01/02 01:06:20;;;;;;;0.40;0.30;;;11.40;99.90;;;;;;5057561;28;20580;-69
2023/01/02 01:08:46;;;;;;;0.43;0.40;;;11.50;99.90;;;;;;5057208;28;20021;-70
2023/01/02 01:11:14;;;;;;;0.73;0.50;;;11.50;99.90;;;;;;5057450;28;20055;-69
2023/01/02 01:13:40;;;;;;;0.70;0.32;;;11.40;99.90;;;;;;5057355;28;20589;-69
2023/01/02 01:16:11;;;;;;;1.45;0.55;;;11.50;99.90;;;;;;5057320;28;20481;-69
2023/01/02 01:18:37;;;;;;;0.63;0.35;;;11.40;99.90;;;;;;5039317;28;20099;-70
2023/01/02 01:21:17;;;;;;;0.73;0.40;;;11.40;99.90;;;;;;5057524;28;20066;-70
2023/01/02 01:23:47;;;;;;;0.73;0.30;;;11.30;99.90;;;;;;5057068;28;20079;-69
2023/01/02 01:26:13;;;;;;;0.47;0.30;;;11.40;99.90;;;;;;5057449;28;20049;-69
2023/01/02 01:28:39;;;;;;;0.90;0.40;;;11.40;99.90;;;;;;5057170;28;20020;-69
2023/01/02 01:31:11;;;;;;;0.73;0.40;;;11.40;99.90;;;;;;5057444;28;20036;-69
2023/01/02 01:33:38;;;;;;;0.80;0.40;;;11.40;99.90;;;;;;5057047;28;20028;-69
2023/01/02 01:36:16;;;;;;;0.55;0.30;;;11.40;99.90;;;;;;5045572;28;20028;-69
2023/01/02 01:38:42;;;;;;;0.75;0.50;;;11.30;99.90;;;;;;5044058;28;20024;-70
2023/01/02 01:41:13;;;;;;;1.08;0.50;;;11.30;99.90;;;;;;5039211;28;20067;-70
2023/01/02 01:43:39;;;;;;;0.40;0.32;;;11.30;99.90;;;;;;5039555;28;20477;-70
2023/01/02 01:46:32;;;;;;;0.63;0.45;;;11.30;99.90;;;;;;5057271;28;20032;-69
2023/01/02 01:49:10;;;;;;;0.40;0.30;;;11.30;99.90;;;;;;5057578;28;20017;-70
2023/01/02 01:51:49;;;;;;;1.23;0.50;;;11.30;99.90;;;;;;5039111;28;20029;-70
2023/01/02 01:54:20;;;;;;;0.45;0.30;;;11.30;99.90;;;;;;5043088;28;20025;-69
2023/01/02 01:56:55;;;;;;;0.50;0.30;;;11.30;99.90;;;;;;5061243;28;20071;-69
2023/01/02 01:59:20;;;;;;;0.73;0.40;;;11.40;99.90;;;;;;5060952;28;20032;-69
2023/01/02 02:01:48;;;;;;;0.45;0.30;;;11.40;99.90;;;;;;5060839;28;20103;-70
2023/01/02 02:04:16;;;;;;;0.75;0.43;;;11.40;99.90;;;;;;5042824;28;20025;-70
2023/01/02 02:06:42;;;;;;;0.73;0.43;;;11.40;99.90;;;;;;5061018;28;20476;-70
2023/01/02 02:09:26;;;;;;;0.63;0.40;;;11.40;99.90;;;;;;5060500;28;20052;-69
2023/01/02 02:11:54;;;;;;;0.55;0.40;;;11.40;99.90;;;;;;5060589;28;20124;-70
2023/01/02 02:14:19;;;;;;;0.90;0.45;;;11.40;99.90;;;;;;5042867;28;20029;-70
2023/01/02 02:17:06;;;;;;;0.60;0.40;;;11.40;99.90;;;;;;5042755;28;20393;-69
2023/01/02 02:19:49;;;;;;;0.60;0.40;;;11.40;99.90;;;;;;5060990;28;20477;-69
2023/01/02 02:22:30;;;;;;;0.40;0.30;;;11.40;99.90;;;;;;5060198;28;20374;-69
2023/01/02 02:25:11;;;;;;;0.65;0.45;;;11.40;99.90;;;;;;5060472;28;20389;-70
2023/01/02 02:27:48;;;;;;;1.00;0.50;;;11.40;99.90;;;;;;5060798;28;20545;-69
2023/01/02 02:30:26;;;;;;;0.80;0.40;;;11.40;99.90;;;;;;5060389;28;20025;-69
2023/01/02 02:33:19;;;;;;;0.40;0.30;;;11.40;99.90;;;;;;5060507;28;20386;-70
2023/01/02 02:36:18;;;;;;;0.45;0.35;;;11.30;99.90;;;;;;5046184;28;20464;-69
2023/01/02 02:38:53;;;;;;;1.40;0.40;;;11.40;99.90;;;;;;5048059;28;20033;-69
2023/01/02 02:41:41;;;;;;;0.70;0.40;;;11.30;99.90;;;;;;5060377;28;20033;-69
2023/01/02 02:44:27;;;;;;;0.70;0.38;;;11.30;99.90;;;;;;5042257;28;20032;-70
2023/01/02 02:47:03;;;;;;;0.50;0.30;;;11.30;99.90;;;;;;5060137;28;20477;-69
2023/01/02 02:50:03;;;;;;;0.95;0.50;;;11.30;99.90;;;;;;5060019;28;20104;-70
2023/01/02 02:52:34;;;;;;;0.63;0.35;;;11.40;99.90;;;;;;5059897;28;20086;-70
2023/01/02 02:55:32;;;;;;;0.93;0.50;;;11.40;99.90;;;;;;5060088;28;20473;-70
2023/01/02 02:57:59;;;;;;;1.17;0.50;;;11.30;99.90;;;;;;5049060;28;20099;-70
2023/01/02 03:00:25;;;;;;;1.52;0.70;;;11.30;99.90;;;;;;5060010;28;20025;-69
2023/01/02 03:02:51;;;;;;;1.27;0.65;;;11.30;99.90;;;;;;5041349;28;20075;-69
2023/01/02 03:05:33;;;;;;;1.15;0.52;;;11.30;99.90;;;;;;5058689;28;20021;-70
2023/01/02 03:08:25;;;;;;;0.50;0.38;;;11.20;99.90;;;;;;5059659;28;20025;-69
2023/01/02 03:11:00;;;;;;;0.47;0.40;;;11.30;99.90;;;;;;5031004;28;20132;-69
2023/01/02 03:13:40;;;;;;;2.55;0.60;;;11.20;99.90;;;;;;5059684;28;20029;-69
2023/01/02 03:16:25;;;;;;;0.90;0.40;;;11.20;99.90;;;;;;5041805;28;20489;-69
2023/01/02 03:19:28;;;;;;;0.70;0.50;;;11.20;99.90;;;;;;5059535;28;20033;-69
2023/01/02 03:22:02;;;;;;;0.95;0.30;;;11.20;99.90;;;;;;5059153;28;20710;-69
2023/01/02 03:24:29;;;;;;;0.47;0.30;;;11.20;99.90;;;;;;5059620;28;20029;-69
2023/01/02 03:27:00;;;;;;;0.32;0.30;;;11.20;99.90;;;;;;5059314;28;20025;-69
2023/01/02 03:29:45;;;;;;;1.63;0.50;;;11.20;99.90;;;;;;5059344;28;20028;-69
2023/01/02 03:32:26;;;;;;;0.98;0.40;;;11.20;99.90;;;;;;5059433;28;20025;-70
2023/01/02 03:34:53;;;;;;;0.40;0.30;;;11.20;99.90;;;;;;5059158;28;20032;-70
2023/01/02 03:37:27;;;;;;;0.30;0.30;;;11.20;99.90;;;;;;5058954;28;20025;-69
2023/01/02 03:40:00;;;;;;;1.08;0.50;;;11.20;99.90;;;;;;5059127;28;20108;-69
2023/01/02 03:42:34;;;;;;;0.43;0.30;;;11.10;99.90;;;;;;5059058;28;20032;-70
2023/01/02 03:45:33;;;;;;;1.25;0.57;;;11.10;99.90;;;;;;5058930;28;20104;-69
2023/01/02 03:48:37;;;;;;;0.70;0.30;;;11.10;99.90;;;;;;5043472;28;20052;-69
2023/01/02 03:51:03;;;;;;;0.55;0.38;;;11.00;99.90;;;;;;5059009;28;20025;-70
2023/01/02 03:53:30;;;;;;;0.93;0.50;;;11.00;99.90;;;;;;5058830;28;20025;-70
2023/01/02 03:56:21;;;;;;;0.90;0.50;;;11.10;99.90;;;;;;5058870;28;20071;-69
2023/01/02 03:58:57;;;;;;;0.60;0.40;;;11.00;99.90;;;;;;5058965;28;20025;-69
2023/01/02 04:01:45;;;;;;;0.82;0.40;;;11.00;99.90;;;;;;5040528;28;20083;-70
2023/01/02 04:04:41;;;;;;;2.08;0.70;;;11.00;99.90;;;;;;5039479;28;20393;-69
2023/01/02 04:07:15;;;;;;;0.50;0.45;;;10.90;99.90;;;;;;5054301;28;20088;-70
2023/01/02 04:09:43;;;;;;;1.00;0.55;;;11.00;99.90;;;;;;5040650;28;20028;-70
2023/01/02 04:12:16;;;;;;;1.80;0.50;;;11.00;99.90;;;;;;5058244;28;20124;-70
2023/01/02 04:14:48;;;;;;;0.65;0.47;;;11.00;99.90;;;;;;5058276;28;20081;-69
2023/01/02 04:17:16;;;;;;;;;;;11.10;99.90;;;;;;5058576;28;20067;-69
2023/01/02 04:20:10;;;;;;;0.93;0.50;;;11.10;99.90;;;;;;5040507;28;20352;-69
2023/01/02 04:22:38;;;;;;;;;;;11.00;99.90;;;;;;5055677;28;20580;-70
2023/01/02 04:25:12;;;;;;;;;;;11.00;99.90;;;;;;5058735;28;19940;-70
2023/01/02 04:27:56;;;;;;;0.30;0.20;;;11.00;99.90;;;;;;5058252;28;19942;-69
2023/01/02 04:30:22;;;;;;;0.32;0.25;;;10.90;99.90;;;;;;5058084;28;20077;-69
2023/01/02 04:32:48;;;;;;;0.55;0.40;;;11.00;99.90;;;;;;5040165;28;20452;-70
2023/01/02 04:35:20;;;;;;;1.38;0.50;;;11.00;99.90;;;;;;5057947;28;20086;-69
2023/01/02 04:37:46;;;;;;;1.40;0.50;;;11.00;99.90;;;;;;5050741;28;20067;-69
2023/01/02 04:40:28;;;;;;;1.65;0.30;;;11.00;99.90;;;;;;5058017;28;20029;-69
2023/01/02 04:42:54;;;;;;;0.85;0.35;;;11.00;99.90;;;;;;5057871;28;20021;-69
2023/01/02 04:45:19;;;;;;;1.05;0.55;;;11.00;99.90;;;;;;5057958;28;20025;-69
2023/01/02 04:47:49;;;;;;;1.05;0.40;;;10.90;99.90;;;;;;5057847;28;20388;-69
2023/01/02 04:50:15;;;;;;;0.55;0.35;;;10.90;99.90;;;;;;5058035;28;20025;-70
2023/01/02 04:52:41;;;;;;;0.77;0.50;;;10.90;99.90;;;;;;5057473;28;20025;-70
2023/01/02 04:55:08;;;;;;;0.93;0.47;;;10.90;99.90;;;;;;5057888;28;20029;-69
2023/01/02 04:57:37;;;;;;;2.60;0.63;;;10.80;99.90;;;;;;5057986;28;20021;-70
2023/01/02 05:00:06;;;;;;;0.70;0.40;;;10.80;99.90;;;;;;5057722;28;20078;-69
2023/01/02 05:02:38;;;;;;;2.22;0.38;;;10.70;99.90;;;;;;5057213;28;20063;-69
2023/01/02 05:05:06;;;;;;;1.95;0.60;;;10.80;99.90;;;;;;5057657;28;20478;-70
2023/01/02 05:07:33;;;;;;;0.40;0.30;;;10.80;99.90;;;;;;5039442;28;20018;-69
2023/01/02 05:09:59;;;;;;;1.55;0.63;;;10.80;99.90;;;;;;5057580;28;20128;-70
2023/01/02 05:12:24;;;;;;;0.38;0.30;;;10.80;99.90;;;;;;5057243;28;20524;-69
2023/01/02 05:14:50;;;;;;;0.60;0.30;;;10.80;99.90;;;;;;5057433;28;20032;-69
2023/01/02 05:17:16;;;;;;;1.30;0.57;;;10.80;99.90;;;;;;5057297;28;20104;-69
2023/01/02 05:19:41;;;;;;;1.13;0.50;;;10.90;99.90;;;;;;5057412;28;20462;-69
2023/01/02 05:24:55;;;;;;;0.73;0.40;;;10.80;99.90;;;;;;5057274;28;20027;-69
2023/01/02 05:27:20;;;;;;;0.95;0.40;;;10.80;99.90;;;;;;5056723;28;20017;-69
2023/01/02 05:29:46;;;;;;;0.98;0.40;;;10.80;99.90;;;;;;5039397;28;20036;-70
2023/01/02 05:32:11;;;;;;;0.82;0.32;;;10.80;99.90;;;;;;5039371;28;20025;-70
2023/01/02 05:34:37;;;;;;;1.90;0.80;;;10.80;99.90;;;;;;5056451;28;20739;-70
2023/01/02 05:37:03;;;;;;;1.33;0.70;;;10.80;99.90;;;;;;5055798;28;20404;-70
2023/01/02 05:39:28;;;;;;;2.15;0.88;;;10.70;99.90;;;;;;5056527;28;20385;-69
2023/01/02 05:41:54;;;;;;;2.33;0.68;;;10.70;99.90;;;;;;5057206;28;20481;-69
2023/01/02 05:44:19;;;;;;;2.25;0.60;;;10.70;99.90;;;;;;5039180;28;20021;-69
2023/01/02 05:46:45;;;;;;;1.42;0.68;;;10.70;99.90;;;;;;5039156;28;20404;-70
2023/01/02 05:49:11;;;;;;;0.77;0.50;;;10.60;99.90;;;;;;5057119;28;20528;-69
2023/01/02 05:51:37;;;;;;;1.35;0.55;;;10.60;99.90;;;;;;5056963;28;20489;-69
2023/01/02 05:54:02;;;;;;;0.40;0.30;;;10.60;99.90;;;;;;5057248;28;20082;-70
2023/01/02 05:56:29;;;;;;;1.77;0.55;;;10.60;99.90;;;;;;5039194;28;20029;-70
2023/01/02 05:58:55;;;;;;;1.20;0.45;;;10.60;99.90;;;;;;5039173;28;20036;-69
2023/01/02 06:01:24;;;;;;;1.50;0.52;;;10.60;99.90;;;;;;5056868;28;20029;-69
2023/01/02 06:03:55;;;;;;;2.22;0.55;;;10.60;99.90;;;;;;5056865;28;20051;-69
2023/01/02 06:06:23;;;;;;;1.05;0.68;;;10.60;99.90;;;;;;5038985;28;20473;-69
2023/01/02 06:08:49;;;;;;;1.02;0.50;;;10.50;99.90;;;;;;5056735;28;20021;-69
2023/01/02 06:11:15;;;;;;;1.50;0.60;;;10.50;99.90;;;;;;5038838;28;20048;-70
2023/01/02 06:13:40;;;;;;;1.02;0.50;;;10.50;99.90;;;;;;5056707;28;20029;-69
2023/01/02 06:16:08;;;;;;;1.02;0.40;;;10.60;99.90;;;;;;5057012;28;20482;-69
2023/01/02 06:18:35;;;;;;;1.48;0.60;;;10.60;99.90;;;;;;5056659;28;20477;-70
2023/01/02 06:21:09;;;;;;;2.92;0.63;;;10.50;99.90;;;;;;5056979;28;20025;-70
2023/01/02 06:23:35;;;;;;;2.25;0.60;;;10.50;99.90;;;;;;5056456;28;20021;-69
2023/01/02 06:26:05;;;;;;;1.98;0.57;;;10.50;99.90;;;;;;5056825;28;20032;-69
2023/01/02 06:28:32;;;;;;;1.02;0.40;;;10.50;99.90;;;;;;5056700;28;20029;-69
2023/01/02 06:31:06;;;;;;;0.98;0.45;;;10.50;99.90;;;;;;5056615;28;20056;-69
2023/01/02 06:33:32;;;;;;;1.20;0.50;;;10.50;99.90;;;;;;5056497;28;20025;-70
2023/01/02 06:36:04;;;;;;;1.13;0.52;;;10.50;99.90;;;;;;5056646;28;20082;-70
2023/01/02 06:38:29;;;;;;;1.30;0.40;;;10.60;99.90;;;;;;5057434;28;20028;-70
2023/01/02 06:40:57;;;;;;;1.55;0.60;;;10.60;99.90;;;;;;5060261;28;20029;-70
2023/01/02 06:43:24;;;;;;;1.15;0.63;;;10.50;99.90;;;;;;5060045;28;20029;-70
2023/01/02 06:45:50;;;;;;;1.00;0.50;;;10.50;99.90;;;;;;5060170;28;20385;-70
2023/01/02 06:48:16;;;;;;;0.88;0.50;;;10.50;99.90;;;;;;5059934;28;20021;-69
2023/01/02 06:50:43;;;;;;;0.80;0.40;;;10.50;99.90;;;;;;5060107;28;20029;-69
2023/01/02 06:53:09;;;;;;;0.80;0.50;;;10.50;99.90;;;;;;5059723;28;20025;-69
2023/01/02 06:55:35;;;;;;;1.13;0.50;;;10.50;99.90;;;;;;5060031;28;20524;-69
2023/01/02 06:58:01;;;;;;;1.10;0.52;;;10.50;99.90;;;;;;5041872;28;20025;-70
2023/01/02 07:00:26;;;;;;;1.90;0.55;;;10.50;99.90;;;;;;5060055;28;20083;-69
2023/01/02 07:02:52;;;;;;;1.05;0.50;;;10.50;99.90;;;;;;5041540;28;20025;-69
2023/01/02 07:05:18;;;;;;;1.08;0.60;;;10.50;99.90;;;;;;5060076;28;20477;-70
2023/01/02 07:07:43;;;;;;;0.95;0.50;;;10.50;99.90;;;;;;5059429;28;20021;-69
2023/01/02 07:10:09;;;;;;;2.40;0.77;;;10.50;99.90;;;;;;5059636;28;20032;-70
2023/01/02 07:12:36;;;;;;;2.00;0.60;;;10.40;99.90;;;;;;5059570;28;20039;-69
2023/01/02 07:15:04;;;;;;;1.05;0.60;;;10.30;99.90;;;;;;5059684;28;20021;-69
2023/01/02 07:17:30;;;;;;;1.98;0.73;;;10.30;99.90;;;;;;5059369;28;20028;-70
2023/01/02 07:19:56;;;;;;;1.98;0.70;;;10.20;99.90;;;;;;5059542;28;20025;-70
2023/01/02 07:22:22;;;;;;;3.08;0.80;;;10.20;99.90;;;;;;5059083;28;20040;-70
2023/01/02 07:24:47;;;;;;;1.80;0.63;;;10.20;99.90;;;;;;5059614;28;20070;-69
2023/01/02 07:27:13;;;;;;;1.95;0.63;;;10.10;99.90;;;;;;5059385;28;20394;-70
2023/01/02 07:29:38;;;;;;;0.63;0.40;;;10.20;99.90;;;;;;5041555;28;20028;-70
2023/01/02 07:32:04;;;;;;;2.08;0.77;;;10.20;99.90;;;;;;5059224;28;20033;-70
2023/01/02 07:34:30;;;;;;;2.28;0.65;;;10.10;99.90;;;;;;5059397;28;20021;-69
2023/01/02 07:36:55;;;;;;;2.03;0.63;;;10.10;99.90;;;;;;5058706;28;20040;-70
2023/01/02 07:39:22;;;;;;;2.20;0.80;;;10.10;99.90;;;;;;5059395;28;20436;-70
2023/01/02 07:41:48;;;;;;;1.95;0.73;;;10.10;99.90;;;;;;5058813;28;20505;-70
2023/01/02 07:44:13;;;;;;;2.95;0.70;;;10.10;99.90;;;;;;5059260;28;20029;-69
2023/01/02 07:46:39;;;;;;;1.30;0.60;;;10.10;99.90;;;;;;5058786;28;20564;-69
2023/01/02 07:49:05;;;;;;;2.38;0.60;;;10.10;99.90;;;;;;5059129;28;20028;-69
2023/01/02 07:51:31;;;;;;;1.67;0.70;;;10.20;99.90;;;;;;5057913;28;20025;-69
2023/01/02 07:53:57;;;;;;;1.35;0.50;;;10.20;99.90;;;;;;5041068;28;20053;-69
2023/01/02 07:56:24;;;;;;;2.15;0.63;;;10.20;99.90;;;;;;5058730;28;20032;-69
2023/01/02 07:58:50;;;;;;;1.75;0.55;;;10.20;99.90;;;;;;5058970;28;20059;-70
2023/01/02 08:01:15;;;;;;;2.55;0.60;;;10.20;99.90;;;;;;5055541;28;20025;-70
2023/01/02 08:03:42;;;;;;;0.98;0.45;;;10.20;99.90;;;;;;5040556;28;20075;-70
2023/01/02 08:06:13;;;;;;;2.03;0.65;;;10.20;99.90;;;;;;5060153;28;20099;-70
2023/01/02 08:08:39;;;;;;;1.73;0.70;;;10.20;99.90;;;;;;5041553;28;20084;-69
2023/01/02 08:11:19;;;;;;;1.35;0.60;;;10.20;99.90;;;;;;5062186;28;20124;-69
2023/01/02 08:13:45;;;;;;;1.00;0.47;;;10.20;99.90;;;;;;5059550;28;20021;-71
2023/01/02 08:16:14;;;;;;;1.98;0.70;;;10.10;99.90;;;;;;5061963;28;20067;-70
2023/01/02 08:18:40;;;;;;;3.03;0.70;;;10.10;99.90;;;;;;5061385;28;20500;-70
2023/01/02 08:21:06;;;;;;;2.63;0.70;;;10.10;99.90;;;;;;5045125;28;20059;-70
2023/01/02 08:23:33;;;;;;;1.67;0.63;;;10.10;99.90;;;;;;5039132;28;20060;-70
2023/01/02 08:26:00;;;;;;;2.47;0.73;;;10.10;99.90;;;;;;5057360;28;20770;-70
2023/01/02 08:28:27;;;;;;;2.40;0.68;;;10.10;99.90;;;;;;5068634;28;20025;-70
2023/01/02 08:30:53;;;;;;;2.13;0.55;;;10.10;99.90;;;;;;5064105;28;20490;-70
2023/01/02 08:33:19;;;;;;;1.02;0.60;;;10.10;99.90;;;;;;5061490;28;20100;-69
2023/01/02 08:35:44;;;;;;;1.77;0.47;;;10.10;99.90;;;;;;5057584;28;20025;-70
2023/01/02 08:38:10;;;;;;;1.75;0.77;;;10.10;99.90;;;;;;5062820;28;20025;-71
2023/01/02 08:40:36;;;;;;;1.55;0.60;;;10.10;99.90;;;;;;5057980;28;20021;-72
2023/01/02 08:43:01;;;;;;;1.52;0.50;;;10.10;99.90;;;;;;5056432;28;20056;-69
2023/01/02 08:45:27;;;;;;;1.65;0.52;;;10.20;99.90;;;;;;5052778;28;20025;-69
2023/01/02 08:47:53;;;;;;;0.82;0.50;;;10.20;99.90;;;;;;5053288;28;20021;-70
2023/01/02 08:50:19;;;;;;;2.17;0.77;;;10.30;99.90;;;;;;5040335;28;20488;-70
2023/01/02 08:52:44;;;;;;;1.40;0.60;;;10.30;99.90;;;;;;5065816;28;20024;-69
2023/01/02 08:55:10;;;;;;;1.13;0.60;;;10.20;99.90;;;;;;5040694;28;20105;-69
2023/01/02 08:57:36;;;;;;;1.55;0.75;;;10.30;99.90;;;;;;5057278;28;20028;-70
2023/01/02 09:00:03;;;;;;;1.13;0.55;;;10.30;99.90;;;;;;5064183;28;20033;-69
2023/01/02 09:02:29;;;;;;;0.68;0.38;;;10.30;99.90;;;;;;5056724;28;20021;-69
2023/01/02 09:04:54;;;;;;;1.65;0.73;;;10.40;99.90;;;;;;5057053;28;20059;-69
2023/01/02 09:07:20;;;;;;;1.48;0.68;;;10.30;99.90;;;;;;5022537;28;20029;-69
2023/01/02 09:09:46;;;;;;;1.45;0.40;;;10.30;99.90;;;;;;5057370;28;20148;-69
2023/01/02 09:12:12;;;;;;;2.10;0.75;;;10.30;99.90;;;;;;5062219;28;20056;-69
2023/01/02 09:14:37;;;;;;;2.10;1.10;;;10.30;99.90;;;;;;5055959;28;20025;-69
2023/01/02 09:17:03;;;;;;;2.70;0.70;;;10.30;99.90;;;;;;5038084;28;20060;-69
2023/01/02 09:19:29;;;;;;;1.20;0.65;;;10.30;99.90;;;;;;5060500;28;20032;-69
2023/01/02 09:21:54;;;;;;;1.73;0.80;;;10.30;99.90;;;;;;5042797;28;20037;-69
2023/01/02 09:24:20;;;;;;;2.05;1.00;;;10.30;99.90;;;;;;5043656;28;20078;-69
2023/01/02 09:26:46;;;;;;;1.70;0.80;;;10.30;99.90;;;;;;5062090;28;20033;-69
2023/01/02 09:29:13;;;;;;;2.97;1.30;;;10.30;99.90;;;;;;5058435;28;20025;-70
2023/01/02 09:31:39;;;;;;;4.47;1.33;;;10.30;99.90;;;;;;5038563;28;20389;-69
2023/01/02 09:34:05;;;;;;;3.85;1.27;;;10.30;99.90;;;;;;5041611;28;20581;-69
2023/01/02 09:36:31;;;;;;;3.08;1.50;;;10.40;99.90;;;;;;5055751;28;20138;-69
2023/01/02 09:38:59;;;;;;;2.33;1.35;;;10.30;99.90;;;;;;5056203;28;20035;-69
2023/01/02 09:41:27;;;;;;;3.90;1.55;;;10.30;99.90;;;;;;5053287;28;20028;-69
2023/01/02 09:44:06;;;;;;;6.07;1.60;;;10.30;99.90;;;;;;5058480;28;20385;-69
2023/01/02 09:46:59;;;;;;;2.50;1.30;;;10.30;99.90;;;;;;5062180;28;20065;-70
2023/01/02 09:49:42;;;;;;;3.58;1.20;;;10.40;99.90;;;;;;5056104;28;20022;-69
2023/01/02 09:52:24;;;;;;;3.17;1.35;;;10.40;99.90;;;;;;5037588;28;20056;-69
2023/01/02 09:54:50;;;;;;;3.47;1.25;;;10.40;99.90;;;;;;5058697;28;20021;-69
2023/01/02 09:57:28;;;;;;;4.10;1.10;;;10.40;99.90;;;;;;5061876;28;20564;-69
2023/01/02 10:00:18;;;;;;;3.13;0.90;;;10.50;99.90;;;;;;5063919;28;20080;-70
2023/01/02 10:03:13;;;;;;;2.65;1.10;;;10.60;99.90;;;;;;5060641;28;20088;-69
2023/01/02 10:05:53;;;;;;;1.90;0.75;;;10.60;99.90;;;;;;5041048;28;20424;-69
2023/01/02 10:08:36;;;;;;;3.50;0.80;;;10.70;99.90;;;;;;5055899;28;20033;-69
2023/01/02 10:11:28;;;;;;;3.53;0.77;;;10.70;99.90;;;;;;5052208;28;20111;-69
2023/01/02 10:14:15;;;;;;;2.55;0.70;;;10.70;99.90;;;;;;5058532;28;20029;-69
2023/01/02 10:16:45;;;;;;;3.97;0.70;;;10.70;99.90;;;;;;5059606;28;20021;-70
2023/01/02 10:19:20;;;;;;;1.65;0.50;;;10.70;99.90;;;;;;5059769;28;20041;-70
2023/01/02 10:21:51;;;;;;;2.10;0.57;;;10.80;99.90;;;;;;5059122;28;20021;-70
2023/01/02 10:24:36;;;;;;;2.78;0.60;;;10.80;99.90;;;;;;5062903;28;20123;-69
2023/01/02 10:27:04;;;;;;;5.10;0.90;;;10.90;99.90;;;;;;5042276;28;20029;-70
2023/01/02 10:29:41;;;;;;;2.22;0.50;;;10.80;99.90;;;;;;5065888;28;20536;-70
2023/01/02 10:32:14;;;;;;;3.25;0.88;;;10.80;99.90;;;;;;5058709;28;20013;-70
2023/01/02 10:35:05;;;;;;;4.07;0.77;;;10.90;99.90;;;;;;5052926;28;20037;-69
2023/01/02 10:37:32;;;;;;;2.63;0.63;;;10.90;99.90;;;;;;5040371;28;20025;-69
2023/01/02 10:39:58;;;;;;;3.60;0.88;;;10.90;99.90;;;;;;5060059;28;20029;-70
2023/01/02 10:42:24;;;;;;;1.40;0.50;;;10.90;99.90;;;;;;5059477;28;20496;-69
2023/01/02 10:44:50;;;;;;;3.50;0.77;;;11.00;99.90;;;;;;5059481;28;20052;-70
2023/01/02 10:47:34;;;;;;;3.20;0.90;;;11.00;99.90;;;;;;5041085;28;20021;-69
2023/01/02 10:50:03;;;;;;;2.15;0.60;;;11.00;99.90;;;;;;5032110;28;20057;-70
2023/01/02 10:52:42;;;;;;;2.17;0.50;;;11.00;99.90;;;;;;5057194;28;20088;-70
2023/01/02 10:55:08;;;;;;;3.35;0.63;;;11.00;99.90;;;;;;5058927;28;20025;-70
2023/01/02 10:57:45;;;;;;;1.65;0.57;;;11.00;99.90;;;;;;5063510;28;20035;-69
2023/01/02 11:00:17;;;;;;;3.10;1.13;;;11.10;99.90;;;;;;5073846;28;20039;-69
2023/01/02 11:02:50;;;;;;;3.85;0.85;;;11.10;99.90;;;;;;5051120;28;20127;-70
2023/01/02 11:05:22;;;;;;;2.78;0.63;;;11.10;99.90;;;;;;5060145;28;20029;-70
2023/01/02 11:07:50;;;;;;;5.43;0.70;;;11.10;99.90;;;;;;5058727;28;20025;-70
2023/01/02 11:10:37;;;;;;;4.22;0.80;;;11.10;99.90;;;;;;5044214;28;20460;-71
2023/01/02 11:13:08;;;;;;;4.65;0.73;;;11.10;99.90;;;;;;5059126;28;20103;-71
2023/01/02 11:15:42;;;;;;;5.00;0.60;;;11.20;99.90;;;;;;5055065;28;20056;-70
2023/01/02 11:18:16;;;;;;;4.88;0.85;;;11.20;99.90;;;;;;5064672;28;20061;-70
2023/01/02 11:20:48;;;;;;;2.60;0.70;;;11.20;99.90;;;;;;5063536;28;20031;-71
2023/01/02 11:23:15;;;;;;;4.35;0.60;;;11.30;99.90;;;;;;5058971;28;20024;-68
2023/01/02 11:25:42;;;;;;;2.35;0.68;;;11.30;99.90;;;;;;5064507;28;20020;-73
2023/01/02 11:28:18;;;;;;;4.47;1.00;;;11.30;99.90;;;;;;5037036;28;20559;-69
2023/01/02 11:30:45;;;;;;;1.75;0.63;;;11.40;99.90;;;;;;5063947;28;20017;-68
2023/01/02 11:33:19;;;;;;;2.03;0.60;;;11.40;99.90;;;;;;5061994;28;20499;-70
2023/01/02 11:35:50;;;;;;;3.47;0.63;;;11.40;99.90;;;;;;5064153;28;20040;-69
2023/01/02 11:38:21;;;;;;;1.48;0.50;;;11.40;99.90;;;;;;5060667;28;20019;-69
2023/01/02 11:43:47;;;;;;;1.95;0.50;;;11.40;99.90;;;;;;5058067;28;20501;-69
2023/01/02 11:44:28;;;;;;;2.22;0.80;;;11.40;99.90;;;;;;5047701;28;20037;-69
2023/01/02 11:46:55;;;;;;;2.97;0.57;;;11.50;99.90;;;;;;5067591;28;20061;-70
2023/01/02 11:49:25;;;;;;;1.92;0.52;;;11.50;99.90;;;;;;5059240;28;20435;-70
2023/01/02 11:51:59;;;;;;;2.45;0.65;;;11.50;99.90;;;;;;5062053;28;20044;-69
2023/01/02 11:54:32;;;;;;;1.02;0.47;;;11.60;99.90;;;;;;5061128;28;20120;-69
2023/01/02 11:56:59;;;;;;;1.55;0.50;;;11.60;99.90;;;;;;5058303;28;20025;-69
2023/01/02 11:59:35;;;;;;;3.88;0.55;;;11.60;99.90;;;;;;5039971;28;20751;-69
2023/01/02 12:02:12;;;;;;;2.75;0.80;;;11.60;99.90;;;;;;5040097;28;20036;-69
2023/01/02 12:04:38;;;;;;;2.90;0.60;;;11.60;99.90;;;;;;5061133;28;20023;-69
2023/01/02 12:07:32;;;;;;;2.33;0.60;;;11.70;99.90;;;;;;5056890;28;20021;-69
2023/01/02 12:10:05;;;;;;;3.92;0.80;;;11.70;99.90;;;;;;5046428;28;20025;-68
2023/01/02 12:13:01;;;;;;;2.28;0.60;;;11.80;99.90;;;;;;5062762;28;20049;-69
2023/01/02 12:15:55;;;;;;;2.83;0.68;;;11.90;99.90;;;;;;5055852;28;20024;-69
2023/01/02 12:18:53;;;;;;;4.40;0.70;;;12.00;99.90;;;;;;5061015;28;21417;-68
2023/01/02 12:21:24;;;;;;;1.70;0.47;;;12.10;99.90;;;;;;5034362;28;20050;-68
2023/01/02 12:23:58;;;;;;;3.67;0.95;;;12.20;99.90;;;;;;5064066;28;20065;-68
2023/01/02 12:26:29;;;;;;;1.27;0.30;;;12.30;99.90;;;;;;5062845;28;20098;-69
2023/01/02 12:29:02;;;;;;;2.13;0.50;;;12.30;99.90;;;;;;5049041;28;20132;-70
2023/01/02 12:31:46;;;;;;;1.80;0.47;;;12.40;99.90;;;;;;5057777;28;20032;-69
2023/01/02 12:34:18;;;;;;;1.80;0.52;;;12.50;99.90;;;;;;5057392;28;20692;-68
2023/01/02 12:36:57;;;;;;;2.70;0.88;;;12.50;99.90;;;;;;5056609;28;20040;-68
2023/01/02 12:39:37;;;;;;;1.27;0.40;;;12.50;99.90;;;;;;5037024;28;20021;-68
2023/01/02 12:42:39;;;;;;;1.15;0.52;;;12.60;99.90;;;;;;5056305;28;20612;-68
2023/01/02 12:45:31;;;;;;;2.55;0.52;;;12.60;99.90;;;;;;5057411;28;20025;-68
2023/01/02 12:48:05;;;;;;;3.70;0.57;;;12.60;99.90;;;;;;5057534;28;20025;-68
2023/01/02 12:50:51;;;;;;;1.75;0.50;;;12.70;99.90;;;;;;5039512;28;20079;-68
2023/01/02 12:53:39;;;;;;;1.73;0.40;;;12.70;99.90;;;;;;5042995;28;20044;-68
2023/01/02 12:56:17;;;;;;;4.30;0.90;;;12.70;99.90;;;;;;5057444;28;20029;-68
2023/01/02 12:59:04;;;;;;;2.10;0.45;;;12.70;99.90;;;;;;5056587;28;20099;-68
2023/01/02 13:01:47;;;;;;;3.58;0.70;;;12.60;99.90;;;;;;5056962;28;20436;-68
2023/01/02 13:04:13;;;;;;;;;;;12.60;99.90;;;;;;5057354;28;20059;-68
2023/01/02 13:07:01;;;;;;;1.27;0.40;;;12.60;99.90;;;;;;5060510;28;20304;-68
2023/01/02 13:09:49;;;;;;;1.58;0.43;;;12.50;99.90;;;;;;5057022;28;20032;-69
2023/01/02 13:12:24;;;;;;;1.15;0.50;;;12.50;99.90;;;;;;5057345;28;20516;-69
2023/01/02 13:15:00;;;;;;;0.68;0.32;;;12.60;99.90;;;;;;5057322;28;20083;-68